Terminal Aerodrome Forecast
Issued by NWS

Home | Current Version | Previous Version | Text Only | Print | Product List | Glossary On
Versions: 1 2 3 4 5 6 7 8 9 10 11 12
213
FTUS44 KJAN 261127
TAFGTR
TAF
KGTR 261127Z 2612/2712 13004KT P6SM SCT035
     FM261700 14008KT P6SM SCT040 SCT060=

USA.gov is the U.S. government's official web portal to all federal, state and local government web resources and services.